createdAt,value
2023-02-28T00:04:14.458Z,4.93
2023-02-28T00:06:43.103Z,5.50
2023-02-28T00:09:12.948Z,4.65
2023-02-28T00:11:41.552Z,5.13
2023-02-28T00:14:10.136Z,5.45
2023-02-28T00:16:38.619Z,5.03
2023-02-28T00:19:07.110Z,5.40
2023-02-28T00:21:36.683Z,6.07
2023-02-28T00:24:05.434Z,5.53
2023-02-28T00:26:35.357Z,5.78
2023-02-28T00:29:04.095Z,5.45
2023-02-28T00:31:32.594Z,5.80
2023-02-28T00:34:01.171Z,5.90
2023-02-28T00:36:29.656Z,5.38
2023-02-28T00:38:58.381Z,5.03
2023-02-28T00:41:30.454Z,5.43
2023-02-28T00:44:00.541Z,6.18
2023-02-28T00:46:29.279Z,5.70
2023-02-28T00:49:00.177Z,5.43
2023-02-28T00:51:28.966Z,5.72
2023-02-28T00:53:59.689Z,5.60
2023-02-28T00:56:28.125Z,5.72
2023-02-28T01:01:26.915Z,5.63
2023-02-28T01:03:55.724Z,5.88
2023-02-28T01:06:24.593Z,5.55
2023-02-28T01:08:53.071Z,5.80
2023-02-28T01:11:21.638Z,5.28
2023-02-28T01:13:50.919Z,5.03
2023-02-28T01:16:19.381Z,5.75
2023-02-28T01:18:49.302Z,5.07
2023-02-28T01:21:22.039Z,4.97
2023-02-28T01:23:51.030Z,5.22
2023-02-28T01:26:23.006Z,5.28
2023-02-28T01:28:52.944Z,4.82
2023-02-28T01:31:22.695Z,5.68
2023-02-28T01:33:52.871Z,5.20
2023-02-28T01:36:23.770Z,4.80
2023-02-28T01:38:53.408Z,4.90
2023-02-28T01:41:25.105Z,5.35
2023-02-28T01:44:04.229Z,4.80
2023-02-28T01:46:33.543Z,5.03
2023-02-28T01:49:08.824Z,4.82
2023-02-28T01:51:47.400Z,4.45
2023-02-28T01:54:20.551Z,5.20
2023-02-28T01:56:53.393Z,4.43
2023-02-28T01:59:27.096Z,5.25
2023-02-28T02:01:56.288Z,3.58
2023-02-28T02:04:33.712Z,4.05
2023-02-28T02:07:02.366Z,4.47
2023-02-28T02:09:30.737Z,4.40
2023-02-28T02:12:00.055Z,4.95
2023-02-28T02:14:47.113Z,4.88
2023-02-28T02:17:27.254Z,5.03
2023-02-28T02:20:37.683Z,4.93
2023-02-28T02:23:35.364Z,5.05
2023-02-28T02:26:21.479Z,5.55
2023-02-28T02:29:03.864Z,4.88
2023-02-28T02:32:06.597Z,4.70
2023-02-28T02:34:48.461Z,4.68
2023-02-28T02:37:32.437Z,6.00
2023-02-28T02:40:10.522Z,5.60
2023-02-28T02:42:44.794Z,4.87
2023-02-28T02:45:18.610Z,5.57
2023-02-28T02:47:47.962Z,4.22
2023-02-28T02:50:24.420Z,4.45
2023-02-28T02:52:58.013Z,5.32
2023-02-28T02:55:27.392Z,5.18
2023-02-28T02:58:00.776Z,5.07
2023-02-28T03:00:33.624Z,6.53
2023-02-28T03:03:03.926Z,5.53
2023-02-28T03:05:41.975Z,5.38
2023-02-28T03:13:19.061Z,4.43
2023-02-28T03:16:07.286Z,5.20
2023-02-28T03:18:45.023Z,5.82
2023-02-28T03:21:27.590Z,6.82
2023-02-28T03:24:06.398Z,5.45
2023-02-28T03:26:39.720Z,5.47
2023-02-28T03:29:18.336Z,6.53
2023-02-28T03:31:52.669Z,5.07
2023-02-28T03:34:28.789Z,5.90
2023-02-28T03:37:01.574Z,6.38
2023-02-28T03:39:39.084Z,5.90
2023-02-28T03:42:11.843Z,5.40
2023-02-28T03:44:44.817Z,5.10
2023-02-28T03:47:15.939Z,6.13
2023-02-28T03:49:50.156Z,5.10
2023-02-28T03:52:23.528Z,6.18
2023-02-28T03:54:56.760Z,4.50
2023-02-28T03:58:09.363Z,6.13
2023-02-28T04:00:42.582Z,4.70
2023-02-28T04:03:11.102Z,4.53
2023-02-28T04:05:52.517Z,7.35
2023-02-28T04:08:22.680Z,5.45
2023-02-28T04:10:56.548Z,5.30
2023-02-28T04:13:25.067Z,5.35
2023-02-28T04:15:53.502Z,5.85
2023-02-28T04:18:21.913Z,4.70
2023-02-28T04:20:50.368Z,4.57
2023-02-28T04:23:18.755Z,4.88
2023-02-28T04:25:48.633Z,5.13
2023-02-28T04:28:17.078Z,5.03
2023-02-28T04:30:45.539Z,3.80
2023-02-28T04:33:14.063Z,5.13
2023-02-28T04:35:42.548Z,4.85
2023-02-28T04:38:11.034Z,4.88
2023-02-28T04:40:39.452Z,4.43
2023-02-28T04:43:09.321Z,4.97
2023-02-28T04:45:37.907Z,4.72
2023-02-28T04:48:06.711Z,4.18
2023-02-28T04:50:35.243Z,4.95
2023-02-28T04:53:03.636Z,4.45
2023-02-28T05:02:57.871Z,3.42
2023-02-28T05:07:54.676Z,3.35
2023-02-28T05:10:23.270Z,3.28
2023-02-28T05:12:51.698Z,4.40
2023-02-28T05:20:18.190Z,3.55
2023-02-28T05:22:46.827Z,3.50
2023-02-28T05:25:20.119Z,2.53
2023-02-28T05:27:48.684Z,3.03
2023-02-28T05:32:45.544Z,3.22
2023-02-28T05:35:15.349Z,3.60
2023-02-28T05:37:43.780Z,3.17
2023-02-28T05:42:41.164Z,3.13
2023-02-28T05:47:38.264Z,3.65
2023-02-28T05:50:08.122Z,2.90
2023-02-28T05:52:38.429Z,2.95
2023-02-28T05:55:07.976Z,3.20
2023-02-28T05:57:36.493Z,3.13
2023-02-28T06:02:42.220Z,2.92
2023-02-28T06:05:16.739Z,3.05
2023-02-28T06:07:46.817Z,3.63
2023-02-28T06:10:15.907Z,3.00
2023-02-28T06:12:44.636Z,3.30
2023-02-28T06:15:15.788Z,3.35
2023-02-28T06:17:44.709Z,3.13
2023-02-28T06:20:15.023Z,1.90
2023-02-28T06:22:44.010Z,3.88
2023-02-28T06:25:13.888Z,2.42
2023-02-28T06:27:42.287Z,2.53
2023-02-28T06:30:12.004Z,3.95
2023-02-28T06:32:40.833Z,3.13
2023-02-28T06:35:10.048Z,3.20
2023-02-28T06:37:41.442Z,3.10
2023-02-28T06:40:11.921Z,3.13
2023-02-28T06:42:42.541Z,3.20
2023-02-28T06:45:12.073Z,3.10
2023-02-28T06:47:41.827Z,3.03
2023-02-28T06:50:12.104Z,2.88
2023-02-28T06:52:40.968Z,3.38
2023-02-28T06:55:10.657Z,2.53
2023-02-28T06:57:39.258Z,2.75
2023-02-28T07:02:40.044Z,2.78
2023-02-28T07:05:09.233Z,2.80
2023-02-28T07:07:39.744Z,2.45
2023-02-28T07:10:08.928Z,2.78
2023-02-28T07:12:38.922Z,2.92
2023-02-28T07:15:10.416Z,3.00
2023-02-28T07:17:39.121Z,2.67
2023-02-28T07:22:36.387Z,2.05
2023-02-28T07:27:33.086Z,2.80
2023-02-28T07:30:02.756Z,2.83
2023-02-28T07:32:33.773Z,2.80
2023-02-28T07:35:02.448Z,3.15
2023-02-28T07:37:32.636Z,2.58
2023-02-28T07:40:02.369Z,3.58
2023-02-28T07:42:32.093Z,2.92
2023-02-28T07:45:00.646Z,2.97
2023-02-28T07:47:29.230Z,3.20
2023-02-28T07:52:27.681Z,2.97
2023-02-28T07:57:25.583Z,2.90
2023-02-28T07:59:54.274Z,3.05
2023-02-28T08:02:23.104Z,2.85
2023-02-28T08:09:49.607Z,2.85
2023-02-28T08:12:18.239Z,3.67
2023-02-28T08:14:46.794Z,2.72
2023-02-28T08:17:15.218Z,2.85
2023-02-28T08:19:43.811Z,3.22
2023-02-28T08:22:12.252Z,2.75
2023-02-28T08:24:43.979Z,2.83
2023-02-28T08:27:12.778Z,2.63
2023-02-28T08:32:23.614Z,2.53
2023-02-28T08:34:57.406Z,2.58
2023-02-28T08:37:25.926Z,3.22
2023-02-28T08:39:56.515Z,3.38
2023-02-28T08:42:25.704Z,2.67
2023-02-28T08:44:54.347Z,3.00
2023-02-28T08:49:51.246Z,3.28
2023-02-28T08:54:48.992Z,3.28
2023-02-28T08:57:19.633Z,3.95
2023-02-28T08:59:48.585Z,3.13
2023-02-28T09:02:17.724Z,2.58
2023-02-28T09:04:46.729Z,2.67
2023-02-28T09:07:15.526Z,3.25
2023-02-28T09:09:54.993Z,3.50
2023-02-28T09:12:26.716Z,3.25
2023-02-28T09:14:55.544Z,3.10
2023-02-28T09:17:24.216Z,3.03
2023-02-28T09:19:59.964Z,3.20
2023-02-28T09:22:28.675Z,3.30
2023-02-28T09:24:57.336Z,3.22
2023-02-28T09:27:30.120Z,2.40
2023-02-28T09:29:58.943Z,3.20
2023-02-28T09:32:27.845Z,3.60
2023-02-28T09:34:56.707Z,3.60
2023-02-28T09:37:26.140Z,2.67
2023-02-28T09:39:55.018Z,3.80
2023-02-28T09:42:25.973Z,3.05
2023-02-28T09:44:57.561Z,2.97
2023-02-28T09:47:34.291Z,4.00
2023-02-28T09:50:22.520Z,3.67
2023-02-28T09:52:52.587Z,3.05
2023-02-28T09:55:27.584Z,2.83
2023-02-28T09:58:00.967Z,3.30
2023-02-28T10:00:36.002Z,3.63
2023-02-28T10:03:19.074Z,3.03
2023-02-28T10:05:56.337Z,2.83
2023-02-28T10:08:29.824Z,3.38
2023-02-28T10:11:00.929Z,2.50
2023-02-28T10:13:37.108Z,3.05
2023-02-28T10:16:12.589Z,3.00
2023-02-28T10:18:48.541Z,2.60
2023-02-28T10:21:23.593Z,3.10
2023-02-28T10:23:58.728Z,3.03
2023-02-28T10:26:31.558Z,3.03
2023-02-28T10:29:01.399Z,3.30
2023-02-28T10:31:32.326Z,2.72
2023-02-28T10:34:01.391Z,3.00
2023-02-28T10:36:31.070Z,2.75
2023-02-28T10:39:01.058Z,2.92
2023-02-28T10:41:35.956Z,3.03
2023-02-28T10:44:17.330Z,2.85
2023-02-28T10:46:48.170Z,2.85
2023-02-28T10:49:25.657Z,3.40
2023-02-28T10:51:58.096Z,2.40
2023-02-28T10:54:31.934Z,2.67
2023-02-28T10:57:17.513Z,3.60
2023-02-28T10:59:46.764Z,3.85
2023-02-28T11:02:38.930Z,2.65
2023-02-28T11:05:30.074Z,3.28
2023-02-28T11:08:03.275Z,2.60
2023-02-28T11:10:35.971Z,3.55
2023-02-28T11:13:05.545Z,3.58
2023-02-28T11:15:36.560Z,3.30
2023-02-28T11:18:24.262Z,3.70
2023-02-28T11:20:55.568Z,3.20
2023-02-28T11:23:28.873Z,3.30
2023-02-28T11:26:01.165Z,3.60
2023-02-28T11:28:33.629Z,3.33
2023-02-28T11:31:05.457Z,3.33
2023-02-28T11:33:43.562Z,4.25
2023-02-28T11:36:15.001Z,3.80
2023-02-28T11:38:44.185Z,4.15
2023-02-28T11:41:27.682Z,4.38
2023-02-28T11:44:11.258Z,3.03
2023-02-28T11:46:47.077Z,3.42
2023-02-28T11:49:29.617Z,3.70
2023-02-28T11:52:04.167Z,3.38
2023-02-28T11:54:50.213Z,4.28
2023-02-28T11:57:39.451Z,3.40
2023-02-28T12:00:34.448Z,3.70
2023-02-28T12:03:40.375Z,4.18
2023-02-28T12:06:20.536Z,3.95
2023-02-28T12:08:56.948Z,4.45
2023-02-28T12:11:37.637Z,3.60
2023-02-28T12:14:34.229Z,3.78
2023-02-28T12:17:16.196Z,3.22
2023-02-28T12:19:56.328Z,3.40
2023-02-28T12:22:31.807Z,3.35
2023-02-28T12:25:42.100Z,3.13
2023-02-28T12:28:13.349Z,3.80
2023-02-28T12:30:49.347Z,3.47
2023-02-28T12:33:23.081Z,3.35
2023-02-28T12:35:57.364Z,3.25
2023-02-28T12:38:31.032Z,3.63
2023-02-28T12:41:03.509Z,3.67
2023-02-28T12:43:39.574Z,3.35
2023-02-28T12:46:14.996Z,2.97
2023-02-28T12:48:49.207Z,3.03
2023-02-28T12:51:19.978Z,3.42
2023-02-28T12:54:10.575Z,3.13
2023-02-28T12:56:47.469Z,3.00
2023-02-28T12:59:25.594Z,3.13
2023-02-28T13:02:21.115Z,2.72
2023-02-28T13:05:23.294Z,3.30
2023-02-28T13:08:14.270Z,2.58
2023-02-28T13:10:47.558Z,4.05
2023-02-28T13:13:21.153Z,3.53
2023-02-28T13:16:02.210Z,3.20
2023-02-28T13:18:34.379Z,3.25
2023-02-28T13:21:03.381Z,2.70
2023-02-28T13:23:59.409Z,3.42
2023-02-28T13:27:10.547Z,2.85
2023-02-28T13:29:43.236Z,3.15
2023-02-28T13:32:44.539Z,2.90
2023-02-28T13:35:36.661Z,3.30
2023-02-28T13:38:26.922Z,3.10
2023-02-28T13:40:55.382Z,2.88
2023-02-28T13:44:03.157Z,3.53
2023-02-28T13:46:34.502Z,3.10
2023-02-28T13:49:20.876Z,2.97
2023-02-28T13:51:50.782Z,3.75
2023-02-28T13:54:32.594Z,3.35
2023-02-28T13:57:20.343Z,2.90
2023-02-28T13:59:58.230Z,3.47
2023-02-28T14:02:43.376Z,3.60
2023-02-28T14:05:18.044Z,2.85
2023-02-28T14:07:50.549Z,3.83
2023-02-28T14:10:30.505Z,3.90
2023-02-28T14:13:15.037Z,4.28
2023-02-28T14:15:48.290Z,3.35
2023-02-28T14:18:34.419Z,3.85
2023-02-28T14:21:17.034Z,3.80
2023-02-28T14:24:34.465Z,2.90
2023-02-28T14:27:15.897Z,2.72
2023-02-28T14:30:10.303Z,3.50
2023-02-28T14:32:47.926Z,3.83
2023-02-28T14:35:30.285Z,4.35
2023-02-28T14:37:59.257Z,3.08
2023-02-28T14:40:32.667Z,4.18
2023-02-28T14:43:03.207Z,3.78
2023-02-28T14:45:33.840Z,3.80
2023-02-28T14:48:05.196Z,4.15
2023-02-28T14:50:37.714Z,3.70
2023-02-28T14:53:17.879Z,3.90
2023-02-28T14:55:48.705Z,3.40
2023-02-28T14:58:25.133Z,3.53
2023-02-28T15:00:55.940Z,4.10
2023-02-28T15:03:26.723Z,3.60
2023-02-28T15:05:58.544Z,4.30
2023-02-28T15:08:30.214Z,3.85
2023-02-28T15:11:02.720Z,3.17
2023-02-28T15:13:39.191Z,4.03
2023-02-28T15:16:12.886Z,3.97
2023-02-28T15:18:48.492Z,3.92
2023-02-28T15:21:20.771Z,3.60
2023-02-28T15:23:53.797Z,3.80
2023-02-28T15:26:26.246Z,3.53
2023-02-28T15:29:00.309Z,3.67
2023-02-28T15:31:39.040Z,3.45
2023-02-28T15:34:23.250Z,4.10
2023-02-28T15:36:54.818Z,3.60
2023-02-28T15:39:25.712Z,3.38
2023-02-28T15:41:54.442Z,3.35
2023-02-28T15:44:30.885Z,3.22
2023-02-28T15:47:06.224Z,3.40
2023-02-28T15:49:45.298Z,2.75
2023-02-28T15:52:20.431Z,3.75
2023-02-28T15:54:50.402Z,3.88
2023-02-28T15:57:22.866Z,3.95
2023-02-28T15:59:55.698Z,3.88
2023-02-28T16:02:33.023Z,2.67
2023-02-28T16:05:22.727Z,3.17
2023-02-28T16:07:52.702Z,2.33
2023-02-28T16:10:21.433Z,3.22
2023-02-28T16:15:23.692Z,3.00
2023-02-28T16:17:52.691Z,3.13
2023-02-28T16:20:23.399Z,3.58
2023-02-28T16:22:53.637Z,3.80
2023-02-28T16:25:25.825Z,3.42
2023-02-28T16:27:56.010Z,3.50
2023-02-28T16:30:28.095Z,3.50
2023-02-28T16:32:58.171Z,2.80
2023-02-28T16:35:26.851Z,2.60
2023-02-28T16:37:56.756Z,3.42
2023-02-28T16:40:29.737Z,3.30
2023-02-28T16:43:02.025Z,3.70
2023-02-28T16:45:31.813Z,2.50
2023-02-28T16:48:00.404Z,2.90
2023-02-28T16:50:31.302Z,3.55
2023-02-28T16:53:01.260Z,2.40
2023-02-28T16:55:30.078Z,3.30
2023-02-28T16:58:03.750Z,3.33
2023-02-28T17:00:34.553Z,2.67
2023-02-28T17:03:05.775Z,3.15
2023-02-28T17:05:40.735Z,3.67
2023-02-28T17:08:11.942Z,2.80
2023-02-28T17:10:40.569Z,3.20
2023-02-28T17:13:14.980Z,2.28
2023-02-28T17:15:44.414Z,2.58
2023-02-28T17:18:17.853Z,2.47
2023-02-28T17:20:46.517Z,2.97
2023-02-28T17:23:17.112Z,3.53
2023-02-28T17:25:57.614Z,3.00
2023-02-28T17:28:26.641Z,3.05
2023-02-28T17:33:23.611Z,2.40
2023-02-28T17:35:52.202Z,1.88
2023-02-28T17:40:58.194Z,1.30
2023-02-28T17:43:27.626Z,1.00
2023-02-28T17:45:56.659Z,1.13
2023-02-28T17:48:25.289Z,0.77
2023-02-28T17:53:24.282Z,0.88
2023-02-28T17:55:52.783Z,1.10
2023-02-28T17:58:21.264Z,0.98
2023-02-28T18:00:54.969Z,0.95
2023-02-28T18:03:25.373Z,1.10
2023-02-28T18:05:54.009Z,1.02
2023-02-28T18:10:52.247Z,0.93
2023-02-28T18:13:20.901Z,0.75
2023-02-28T18:15:49.680Z,0.60
2023-02-28T18:18:18.396Z,0.63
2023-02-28T18:20:49.431Z,0.73
2023-02-28T18:23:21.289Z,1.15
2023-02-28T18:25:51.466Z,0.95
2023-02-28T18:28:20.281Z,0.50
2023-02-28T18:30:49.151Z,0.50
2023-02-28T18:33:18.108Z,0.80
2023-02-28T18:35:48.589Z,0.60
2023-02-28T18:38:20.578Z,0.80
2023-02-28T18:40:57.780Z,1.30
2023-02-28T18:43:27.033Z,0.80
2023-02-28T18:45:56.205Z,0.82
2023-02-28T18:48:27.304Z,1.08
2023-02-28T18:50:56.660Z,1.02
2023-02-28T18:53:31.686Z,0.95
2023-02-28T18:56:06.126Z,0.82
2023-02-28T18:58:35.537Z,1.08
2023-02-28T19:01:06.114Z,0.70
2023-02-28T19:03:38.052Z,1.00
2023-02-28T19:06:07.227Z,0.73
2023-02-28T19:08:37.658Z,0.75
2023-02-28T19:11:10.801Z,0.73
2023-02-28T19:13:39.869Z,0.70
2023-02-28T19:16:10.002Z,1.13
2023-02-28T19:18:39.127Z,0.82
2023-02-28T19:21:08.885Z,0.85
2023-02-28T19:23:38.152Z,1.27
2023-02-28T19:26:10.204Z,0.80
2023-02-28T19:28:39.259Z,0.80
2023-02-28T19:31:14.333Z,0.77
2023-02-28T19:33:43.695Z,0.70
2023-02-28T19:36:13.408Z,1.00
2023-02-28T19:38:44.791Z,0.80
2023-02-28T19:41:17.304Z,1.05
2023-02-28T19:43:46.757Z,1.10
2023-02-28T19:46:15.822Z,0.60
2023-02-28T19:48:45.035Z,0.90
2023-02-28T19:53:45.047Z,0.77
2023-02-28T19:56:14.847Z,0.55
2023-02-28T19:58:43.432Z,0.80
2023-02-28T20:03:40.976Z,0.68
2023-02-28T20:06:13.999Z,0.75
2023-02-28T20:08:42.897Z,0.70
2023-02-28T20:11:12.950Z,0.90
2023-02-28T20:13:43.865Z,0.60
2023-02-28T20:16:14.627Z,0.60
2023-02-28T20:18:44.758Z,0.90
2023-02-28T20:21:14.864Z,0.73
2023-02-28T20:23:44.391Z,0.80
2023-02-28T20:26:13.462Z,0.93
2023-02-28T20:28:44.396Z,0.60
2023-02-28T20:31:14.085Z,0.65
2023-02-28T20:33:44.365Z,0.70
2023-02-28T20:36:15.925Z,0.65
2023-02-28T20:38:45.452Z,0.65
2023-02-28T20:41:14.786Z,0.80
2023-02-28T20:43:45.828Z,2.15
2023-02-28T20:46:15.478Z,0.50
2023-02-28T20:48:44.090Z,0.85
2023-02-28T20:53:40.826Z,0.90
2023-02-28T20:58:39.296Z,0.60
2023-02-28T21:01:12.944Z,0.77
2023-02-28T21:03:42.735Z,0.75
2023-02-28T21:06:13.244Z,0.80
2023-02-28T21:08:42.189Z,0.60
2023-02-28T21:11:11.427Z,0.55
2023-02-28T21:13:40.075Z,0.63
2023-02-28T21:16:11.677Z,0.90
2023-02-28T21:18:40.366Z,0.80
2023-02-28T21:21:10.899Z,0.70
2023-02-28T21:23:39.683Z,0.90
2023-02-28T21:26:10.035Z,0.70
2023-02-28T21:28:44.288Z,0.60
2023-02-28T21:31:16.581Z,0.77
2023-02-28T21:33:45.897Z,0.98
2023-02-28T21:36:16.013Z,1.08
2023-02-28T21:38:46.290Z,0.60
2023-02-28T21:41:16.708Z,0.70
2023-02-28T21:43:46.105Z,0.90
2023-02-28T21:46:18.244Z,0.60
2023-02-28T21:48:50.193Z,0.50
2023-02-28T21:51:21.165Z,0.77
2023-02-28T21:53:50.486Z,0.93
2023-02-28T21:56:21.240Z,0.60
2023-02-28T21:58:50.539Z,0.73
2023-02-28T22:01:22.654Z,0.70
2023-02-28T22:03:51.792Z,1.00
2023-02-28T22:06:22.432Z,0.88
2023-02-28T22:08:53.915Z,0.60
2023-02-28T22:11:23.938Z,0.70
2023-02-28T22:13:53.743Z,0.90
2023-02-28T22:16:25.267Z,1.23
2023-02-28T22:18:54.841Z,0.75
2023-02-28T22:21:24.866Z,1.13
2023-02-28T22:23:53.455Z,0.68
2023-02-28T22:26:24.239Z,0.73
2023-02-28T22:28:52.954Z,0.70
2023-02-28T22:31:24.894Z,0.80
2023-02-28T22:33:56.002Z,0.98
2023-02-28T22:36:25.597Z,0.70
2023-02-28T22:38:54.662Z,0.70
2023-02-28T22:41:24.382Z,0.70
2023-02-28T22:43:55.025Z,0.90
2023-02-28T22:46:26.136Z,0.68
2023-02-28T22:48:54.665Z,0.93
2023-02-28T22:51:25.851Z,0.80
2023-02-28T22:53:56.100Z,1.10
2023-02-28T22:56:27.121Z,0.90
2023-02-28T22:58:57.709Z,0.90
2023-02-28T23:01:29.883Z,0.70
2023-02-28T23:03:59.149Z,3.97
2023-02-28T23:06:30.517Z,0.77
2023-02-28T23:09:01.018Z,0.80
2023-02-28T23:11:32.067Z,0.65
2023-02-28T23:14:01.048Z,0.82
2023-02-28T23:16:33.526Z,0.90
2023-02-28T23:19:05.432Z,0.75
2023-02-28T23:21:34.509Z,0.70
2023-02-28T23:24:03.917Z,0.60
2023-02-28T23:26:34.096Z,1.02
2023-02-28T23:29:02.680Z,1.17
2023-02-28T23:31:32.652Z,0.70
2023-02-28T23:34:01.308Z,0.70
2023-02-28T23:36:30.706Z,1.15
2023-02-28T23:38:59.705Z,1.00
2023-02-28T23:41:28.224Z,1.02
2023-02-28T23:46:25.083Z,0.95
2023-02-28T23:48:54.942Z,0.90
2023-02-28T23:51:24.539Z,0.88
2023-02-28T23:53:53.785Z,0.80
2023-02-28T23:56:23.751Z,1.10
2023-02-28T23:58:53.091Z,0.73
